createdAt,value
2016-05-25T00:00:19.297Z,0
2016-05-25T00:01:19.128Z,0
2016-05-25T00:02:19.286Z,0
2016-05-25T00:03:19.258Z,0
2016-05-25T00:04:19.246Z,0
2016-05-25T00:05:19.217Z,0
2016-05-25T00:06:19.205Z,0
2016-05-25T00:07:19.207Z,0
2016-05-25T00:08:19.194Z,0
2016-05-25T00:09:19.166Z,0
2016-05-25T00:10:19.137Z,0
2016-05-25T00:11:19.124Z,0
2016-05-25T00:12:18.970Z,0
2016-05-25T00:13:18.957Z,0
2016-05-25T00:14:19.085Z,0
2016-05-25T00:15:19.071Z,0
2016-05-25T00:16:19.325Z,0
2016-05-25T00:17:19.046Z,0
2016-05-25T00:18:18.877Z,0
2016-05-25T00:19:19.020Z,0
2016-05-25T00:20:19.023Z,0
2016-05-25T00:21:18.995Z,0
2016-05-25T00:22:18.809Z,0
2016-05-25T00:23:18.968Z,0
2016-05-25T00:24:18.925Z,0
2016-05-25T00:25:18.756Z,0
2016-05-25T00:26:18.914Z,0
2016-05-25T00:27:18.886Z,0
2016-05-25T00:28:18.717Z,0
2016-05-25T00:29:18.704Z,0
2016-05-25T00:30:18.862Z,0
2016-05-25T00:31:19.053Z,0
2016-05-25T00:32:18.805Z,0
2016-05-25T00:33:18.808Z,0
2016-05-25T00:34:18.811Z,0
2016-05-25T00:35:18.782Z,0
2016-05-25T00:36:18.753Z,0
2016-05-25T00:37:18.740Z,0
2016-05-25T00:38:18.572Z,0
2016-05-25T00:39:18.700Z,0
2016-05-25T00:40:18.686Z,0
2016-05-25T00:41:18.689Z,0
2016-05-25T00:42:18.660Z,0
2016-05-25T00:43:18.491Z,0
2016-05-25T00:44:18.634Z,0
2016-05-25T00:45:18.465Z,0
2016-05-25T00:46:18.984Z,0
2016-05-25T00:47:18.268Z,0
2016-05-25T00:48:18.568Z,0
2016-05-25T00:49:18.570Z,0
2016-05-25T00:50:18.573Z,0
2016-05-25T00:51:18.403Z,0
2016-05-25T00:52:18.375Z,0
2016-05-25T00:53:18.487Z,0
2016-05-25T00:54:18.489Z,0
2016-05-25T00:55:18.462Z,0
2016-05-25T00:56:18.464Z,0
2016-05-25T00:57:18.434Z,0
2016-05-25T00:58:18.281Z,0
2016-05-25T00:59:18.394Z,0
2016-05-25T01:00:18.647Z,0
2016-05-25T01:01:18.164Z,0
2016-05-25T01:02:18.355Z,0
2016-05-25T01:03:18.186Z,0
2016-05-25T01:04:18.344Z,0
2016-05-25T01:05:18.160Z,0
2016-05-25T01:06:18.146Z,0
2016-05-25T01:07:18.290Z,0
2016-05-25T01:08:18.261Z,0
2016-05-25T01:09:18.092Z,0
2016-05-25T01:10:17.924Z,0
2016-05-25T01:11:18.066Z,0
2016-05-25T01:12:18.038Z,0
2016-05-25T01:13:18.040Z,0
2016-05-25T01:14:18.168Z,0
2016-05-25T01:15:18.187Z,0
2016-05-25T01:16:19.173Z,0
2016-05-25T01:17:18.129Z,0
2016-05-25T01:18:17.945Z,0
2016-05-25T01:19:18.088Z,0
2016-05-25T01:20:17.918Z,0
2016-05-25T01:21:18.109Z,0
2016-05-25T01:22:17.909Z,0
2016-05-25T01:23:18.051Z,0
2016-05-25T01:24:18.023Z,0
2016-05-25T01:25:17.854Z,0
2016-05-25T01:26:17.981Z,0
2016-05-25T01:27:17.985Z,0
2016-05-25T01:28:17.972Z,0
2016-05-25T01:29:17.943Z,0
2016-05-25T01:30:17.930Z,0
2016-05-25T01:31:18.464Z,0
2016-05-25T01:32:17.904Z,0
2016-05-25T01:33:17.735Z,0
2016-05-25T01:34:17.878Z,0
2016-05-25T01:35:17.850Z,0
2016-05-25T01:36:17.852Z,0
2016-05-25T01:37:17.683Z,0
2016-05-25T01:38:17.810Z,0
2016-05-25T01:39:17.641Z,0
2016-05-25T01:40:17.786Z,0
2016-05-25T01:41:17.616Z,0
2016-05-25T01:42:17.760Z,0
2016-05-25T01:43:17.590Z,0
2016-05-25T01:44:17.733Z,0
2016-05-25T01:45:17.705Z,0
2016-05-25T01:46:17.754Z,0
2016-05-25T01:47:17.679Z,0
2016-05-25T01:48:17.651Z,0
2016-05-25T01:49:17.654Z,0
2016-05-25T01:50:17.640Z,0
2016-05-25T01:51:17.626Z,0
2016-05-25T01:52:17.599Z,0
2016-05-25T01:53:17.585Z,0
2016-05-25T01:54:17.557Z,0
2016-05-25T01:55:17.403Z,0
2016-05-25T01:56:17.547Z,0
2016-05-25T01:57:17.378Z,0
2016-05-25T01:58:17.505Z,0
2016-05-25T01:59:17.492Z,0
2016-05-25T02:00:17.479Z,0
2016-05-25T02:01:17.623Z,0
2016-05-25T02:02:17.298Z,0
2016-05-25T02:03:17.441Z,0
2016-05-25T02:04:17.412Z,0
2016-05-25T02:05:17.414Z,0
2016-05-25T02:06:17.386Z,0
2016-05-25T02:07:17.373Z,0
2016-05-25T02:08:17.344Z,0
2016-05-25T02:09:17.175Z,0
2016-05-25T02:10:17.350Z,0
2016-05-25T02:11:17.306Z,0
2016-05-25T02:12:17.294Z,0
2016-05-25T02:13:17.124Z,0
2016-05-25T02:14:17.252Z,0
2016-05-25T02:15:17.254Z,0
2016-05-25T02:16:16.944Z,0
2016-05-25T02:17:17.212Z,0
2016-05-25T02:18:17.199Z,0
2016-05-25T02:19:17.187Z,0
2016-05-25T02:20:17.174Z,0
2016-05-25T02:21:17.160Z,0
2016-05-25T02:22:16.992Z,0
2016-05-25T02:23:17.135Z,0
2016-05-25T02:24:16.966Z,0
2016-05-25T02:25:17.093Z,0
2016-05-25T02:26:17.081Z,0
2016-05-25T02:27:17.067Z,0
2016-05-25T02:28:17.054Z,0
2016-05-25T02:29:17.041Z,0
2016-05-25T02:30:17.028Z,0
2016-05-25T02:31:17.453Z,0
2016-05-25T02:32:17.190Z,0
2016-05-25T02:33:16.990Z,0
2016-05-25T02:34:16.946Z,0
2016-05-25T02:35:16.948Z,0
2016-05-25T02:36:16.920Z,0
2016-05-25T02:37:16.766Z,0
2016-05-25T02:38:16.894Z,0
2016-05-25T02:39:16.880Z,0
2016-05-25T02:40:16.853Z,0
2016-05-25T02:41:16.855Z,0
2016-05-25T02:42:16.842Z,0
2016-05-25T02:43:16.658Z,0
2016-05-25T02:44:16.801Z,0
2016-05-25T02:45:16.788Z,0
2016-05-25T02:46:17.291Z,0
2016-05-25T02:47:16.605Z,0
2016-05-25T02:48:16.733Z,0
2016-05-25T02:49:16.720Z,0
2016-05-25T02:50:16.723Z,0
2016-05-25T02:51:16.539Z,0
2016-05-25T02:52:16.384Z,0
2016-05-25T02:53:16.669Z,4
2016-05-25T02:54:16.656Z,4
2016-05-25T02:55:16.643Z,0
2016-05-25T02:56:16.615Z,0
2016-05-25T02:57:16.617Z,4
2016-05-25T02:58:16.604Z,4
2016-05-25T02:59:16.419Z,4
2016-05-25T03:00:16.562Z,4
2016-05-25T03:01:17.018Z,4
2016-05-25T03:02:16.600Z,8
2016-05-25T03:03:16.570Z,4
2016-05-25T03:04:16.495Z,8
2016-05-25T03:05:16.622Z,8
2016-05-25T03:06:16.486Z,12
2016-05-25T03:07:16.284Z,12
2016-05-25T03:08:16.444Z,12
2016-05-25T03:09:16.258Z,12
2016-05-25T03:10:16.292Z,16
2016-05-25T03:11:16.404Z,16
2016-05-25T03:12:16.392Z,20
2016-05-25T03:13:16.379Z,20
2016-05-25T03:14:16.350Z,16
2016-05-25T03:15:16.165Z,20
2016-05-25T03:16:17.293Z,20
2016-05-25T03:17:16.311Z,24
2016-05-25T03:18:16.283Z,28
2016-05-25T03:19:16.270Z,36
2016-05-25T03:20:16.257Z,40
2016-05-25T03:21:16.229Z,44
2016-05-25T03:22:16.216Z,44
2016-05-25T03:23:16.046Z,52
2016-05-25T03:24:16.190Z,56
2016-05-25T03:25:16.177Z,68
2016-05-25T03:26:15.993Z,72
2016-05-25T03:27:16.135Z,80
2016-05-25T03:28:16.123Z,84
2016-05-25T03:29:16.109Z,84
2016-05-25T03:30:15.800Z,88
2016-05-25T03:31:17.115Z,92
2016-05-25T03:32:16.086Z,96
2016-05-25T03:33:15.886Z,100
2016-05-25T03:34:16.029Z,116
2016-05-25T03:35:16.016Z,128
2016-05-25T03:36:16.003Z,140
2016-05-25T03:37:15.975Z,156
2016-05-25T03:38:15.821Z,168
2016-05-25T03:39:15.949Z,180
2016-05-25T03:40:15.936Z,184
2016-05-25T03:41:15.922Z,196
2016-05-25T03:42:15.910Z,200
2016-05-25T03:43:15.897Z,212
2016-05-25T03:44:15.712Z,220
2016-05-25T03:45:15.855Z,228
2016-05-25T03:46:15.749Z,232
2016-05-25T03:47:16.658Z,232
2016-05-25T03:48:15.661Z,236
2016-05-25T03:49:15.804Z,248
2016-05-25T03:50:15.775Z,260
2016-05-25T03:51:15.762Z,276
2016-05-25T03:52:15.765Z,296
2016-05-25T03:53:15.596Z,308
2016-05-25T03:54:15.723Z,308
2016-05-25T03:55:15.555Z,304
2016-05-25T03:56:15.557Z,300
2016-05-25T03:57:15.685Z,300
2016-05-25T03:58:15.360Z,312
2016-05-25T03:59:15.644Z,340
2016-05-25T04:00:15.646Z,368
2016-05-25T04:01:16.164Z,396
2016-05-25T04:02:15.918Z,432
2016-05-25T04:03:15.420Z,472
2016-05-25T04:04:15.579Z,520
2016-05-25T04:05:15.395Z,556
2016-05-25T04:06:15.537Z,576
2016-05-25T04:07:15.555Z,596
2016-05-25T04:08:15.512Z,600
2016-05-25T04:09:15.498Z,592
2016-05-25T04:10:15.486Z,568
2016-05-25T04:11:15.472Z,540
2016-05-25T04:12:15.491Z,532
2016-05-25T04:13:15.447Z,524
2016-05-25T04:14:15.262Z,532
2016-05-25T04:15:15.405Z,540
2016-05-25T04:16:15.564Z,532
2016-05-25T04:17:15.551Z,548
2016-05-25T04:18:15.350Z,588
2016-05-25T04:19:15.361Z,608
2016-05-25T04:20:15.372Z,600
2016-05-25T04:21:15.414Z,596
2016-05-25T04:22:15.378Z,680
2016-05-25T04:23:15.436Z,864
2016-05-25T04:24:15.384Z,1048
2016-05-25T04:25:15.443Z,1124
2016-05-25T04:26:15.391Z,1124
2016-05-25T04:27:15.231Z,1076
2016-05-25T04:28:15.367Z,1040
2016-05-25T04:29:15.357Z,1076
2016-05-25T04:30:15.722Z,1200
2016-05-25T04:31:15.338Z,1424
2016-05-25T04:32:15.171Z,1640
2016-05-25T04:33:15.317Z,1748
2016-05-25T04:34:15.290Z,1752
2016-05-25T04:35:15.887Z,1692
2016-05-25T04:36:15.267Z,1684
2016-05-25T04:37:15.254Z,1712
2016-05-25T04:38:15.244Z,1756
2016-05-25T04:39:15.231Z,1748
2016-05-25T04:40:16.389Z,1692
2016-05-25T04:41:15.190Z,1608
2016-05-25T04:42:15.178Z,1508
2016-05-25T04:43:15.195Z,1440
2016-05-25T04:44:14.996Z,1460
2016-05-25T04:45:16.732Z,1532
2016-05-25T04:46:15.392Z,1648
2016-05-25T04:47:14.817Z,1748
2016-05-25T04:48:15.084Z,1764
2016-05-25T04:49:15.072Z,1768
2016-05-25T04:50:14.934Z,1792
2016-05-25T04:51:15.045Z,1832
2016-05-25T04:52:15.048Z,1928
2016-05-25T04:53:15.035Z,2148
2016-05-25T04:54:15.023Z,2420
2016-05-25T04:55:15.009Z,2700
2016-05-25T04:56:14.980Z,2984
2016-05-25T04:57:14.968Z,3124
2016-05-25T04:58:14.971Z,3156
2016-05-25T04:59:14.786Z,3264
2016-05-25T05:00:14.914Z,3432
2016-05-25T05:01:14.947Z,3480
2016-05-25T05:02:15.575Z,3344
2016-05-25T05:03:14.891Z,3288
2016-05-25T05:04:14.705Z,3204
2016-05-25T05:05:14.833Z,3044
2016-05-25T05:06:14.663Z,2960
2016-05-25T05:07:14.823Z,2928
2016-05-25T05:08:14.638Z,2700
2016-05-25T05:09:14.781Z,2380
2016-05-25T05:10:14.768Z,2156
2016-05-25T05:11:14.756Z,1892
2016-05-25T05:12:14.743Z,1668
2016-05-25T05:13:14.557Z,1468
2016-05-25T05:14:14.560Z,1396
2016-05-25T05:15:14.704Z,1432
2016-05-25T05:16:14.707Z,1540
2016-05-25T05:17:14.522Z,1820
2016-05-25T05:18:14.650Z,2320
2016-05-25T05:19:14.636Z,2796
2016-05-25T05:20:14.624Z,3008
2016-05-25T05:21:14.611Z,3100
2016-05-25T05:22:14.598Z,3164
2016-05-25T05:23:14.600Z,3260
2016-05-25T05:24:14.587Z,3348
2016-05-25T05:25:14.559Z,3400
2016-05-25T05:26:16.640Z,3416
2016-05-25T05:27:14.205Z,3400
2016-05-25T05:28:14.505Z,3384
2016-05-25T05:29:14.335Z,3480
2016-05-25T05:30:14.478Z,3512
2016-05-25T05:31:15.528Z,3532
2016-05-25T05:32:14.203Z,3404
2016-05-25T05:33:14.424Z,3088
2016-05-25T05:34:14.427Z,2768
2016-05-25T05:35:14.477Z,2708
2016-05-25T05:36:14.230Z,2752
2016-05-25T05:37:14.232Z,2676
2016-05-25T05:38:14.360Z,2544
2016-05-25T05:39:14.190Z,2516
2016-05-25T05:40:14.318Z,2508
2016-05-25T05:41:14.337Z,2508
2016-05-25T05:42:14.135Z,2296
2016-05-25T05:43:14.123Z,2036
2016-05-25T05:44:14.265Z,1844
2016-05-25T05:45:14.269Z,1860
2016-05-25T05:46:13.943Z,1984
2016-05-25T05:47:14.884Z,2128
2016-05-25T05:48:14.059Z,2272
2016-05-25T05:49:14.201Z,2352
2016-05-25T05:50:14.189Z,2284
2016-05-25T05:51:14.192Z,2124
2016-05-25T05:52:14.162Z,2044
2016-05-25T05:53:14.150Z,2028
2016-05-25T05:54:14.152Z,2092
2016-05-25T05:55:14.109Z,2116
2016-05-25T05:56:13.955Z,2056
2016-05-25T05:57:14.083Z,1976
2016-05-25T05:58:14.070Z,1964
2016-05-25T05:59:14.072Z,2008
2016-05-25T06:00:13.903Z,2044
2016-05-25T06:01:14.390Z,1944
2016-05-25T06:02:14.502Z,1792
2016-05-25T06:03:14.021Z,1752
2016-05-25T06:04:13.976Z,1748
2016-05-25T06:05:13.807Z,1756
2016-05-25T06:06:13.966Z,1632
2016-05-25T06:07:13.937Z,1628
2016-05-25T06:08:13.925Z,1624
2016-05-25T06:09:13.943Z,1732
2016-05-25T06:10:13.915Z,1756
2016-05-25T06:11:13.871Z,1936
2016-05-25T06:12:13.701Z,2228
2016-05-25T06:13:13.529Z,2460
2016-05-25T06:14:13.846Z,2896
2016-05-25T06:15:13.834Z,3520
2016-05-25T06:16:13.806Z,4092
2016-05-25T06:17:13.792Z,4412
2016-05-25T06:18:13.780Z,4272
2016-05-25T06:19:13.765Z,3896
2016-05-25T06:20:13.751Z,3604
2016-05-25T06:21:13.753Z,3372
2016-05-25T06:22:13.710Z,3480
2016-05-25T06:23:13.712Z,3556
2016-05-25T06:24:13.684Z,3520
2016-05-25T06:25:13.687Z,3764
2016-05-25T06:26:13.658Z,4296
2016-05-25T06:27:13.629Z,4432
2016-05-25T06:28:13.147Z,4480
2016-05-25T06:29:13.603Z,4740
2016-05-25T06:30:13.293Z,5272
2016-05-25T06:31:13.749Z,5576
2016-05-25T06:32:13.564Z,5532
2016-05-25T06:33:13.552Z,5256
2016-05-25T06:34:13.539Z,5136
2016-05-25T06:35:13.370Z,5000
2016-05-25T06:36:13.528Z,4812
2016-05-25T06:37:13.500Z,4608
2016-05-25T06:38:13.331Z,4568
2016-05-25T06:39:13.474Z,4888
2016-05-25T06:40:13.461Z,5104
2016-05-25T06:41:13.432Z,5220
2016-05-25T06:42:13.420Z,5164
2016-05-25T06:43:13.438Z,5020
2016-05-25T06:44:13.254Z,4776
2016-05-25T06:45:12.912Z,4852
2016-05-25T06:46:13.368Z,5400
2016-05-25T06:47:13.401Z,5832
2016-05-25T06:48:13.342Z,5336
2016-05-25T06:49:13.173Z,4136
2016-05-25T06:50:13.315Z,3080
2016-05-25T06:51:13.304Z,2524
2016-05-25T06:52:13.290Z,2260
2016-05-25T06:53:13.277Z,2164
2016-05-25T06:54:13.249Z,2096
2016-05-25T06:55:13.251Z,1964
2016-05-25T06:56:12.911Z,1888
2016-05-25T06:57:13.226Z,1848
2016-05-25T06:58:13.197Z,1836
2016-05-25T06:59:13.200Z,1860
2016-05-25T07:00:13.186Z,1916
2016-05-25T07:01:13.361Z,1948
2016-05-25T07:02:13.692Z,1924
2016-05-25T07:03:13.148Z,1940
2016-05-25T07:04:13.119Z,2064
2016-05-25T07:05:12.966Z,2216
2016-05-25T07:06:12.938Z,2288
2016-05-25T07:07:12.940Z,2008
2016-05-25T07:08:13.068Z,1660
2016-05-25T07:09:13.055Z,1448
2016-05-25T07:10:13.057Z,1376
2016-05-25T07:11:13.029Z,1416
2016-05-25T07:12:12.860Z,1348
2016-05-25T07:13:13.002Z,1280
2016-05-25T07:14:12.974Z,1264
2016-05-25T07:15:12.977Z,1296
2016-05-25T07:16:12.964Z,1492
2016-05-25T07:17:13.248Z,1892
2016-05-25T07:18:12.766Z,2168
2016-05-25T07:19:12.910Z,2344
2016-05-25T07:20:12.740Z,2412
2016-05-25T07:21:12.884Z,3020
2016-05-25T07:22:12.731Z,3644
2016-05-25T07:23:12.843Z,3760
2016-05-25T07:24:12.704Z,3648
2016-05-25T07:25:12.817Z,4272
2016-05-25T07:26:12.819Z,4756
2016-05-25T07:27:12.806Z,4788
2016-05-25T07:28:12.622Z,5080
2016-05-25T07:29:12.764Z,5452
2016-05-25T07:30:12.767Z,5772
2016-05-25T07:31:12.739Z,6184
2016-05-25T07:32:12.601Z,6376
2016-05-25T07:33:12.541Z,6508
2016-05-25T07:34:12.684Z,6256
2016-05-25T07:35:12.703Z,5972
2016-05-25T07:36:12.674Z,5548
2016-05-25T07:37:12.647Z,4960
2016-05-25T07:38:12.649Z,4288
2016-05-25T07:39:12.464Z,4020
2016-05-25T07:40:12.607Z,3952
2016-05-25T07:41:12.453Z,3956
2016-05-25T07:42:12.580Z,3532
2016-05-25T07:43:12.568Z,2920
2016-05-25T07:44:12.571Z,3160
2016-05-25T07:45:12.543Z,4184
2016-05-25T07:46:12.529Z,5876
2016-05-25T07:47:12.735Z,6876
2016-05-25T07:48:12.347Z,7440
2016-05-25T07:49:12.334Z,7792
2016-05-25T07:50:12.494Z,7680
2016-05-25T07:51:12.152Z,7696
2016-05-25T07:52:12.437Z,7932
2016-05-25T07:53:12.439Z,7800
2016-05-25T07:54:12.457Z,7280
2016-05-25T07:55:12.413Z,6780
2016-05-25T07:56:12.260Z,6336
2016-05-25T07:57:12.371Z,6028
2016-05-25T07:58:11.936Z,6044
2016-05-25T07:59:12.362Z,6012
2016-05-25T08:00:12.348Z,5864
2016-05-25T08:01:12.163Z,6240
2016-05-25T08:02:12.916Z,6712
2016-05-25T08:03:12.137Z,7344
2016-05-25T08:04:12.125Z,7800
2016-05-25T08:05:12.268Z,8008
2016-05-25T08:06:12.255Z,7872
2016-05-25T08:07:12.086Z,7228
2016-05-25T08:08:12.230Z,6648
2016-05-25T08:09:12.247Z,6576
2016-05-25T08:10:12.203Z,6368
2016-05-25T08:11:12.175Z,5296
2016-05-25T08:12:13.459Z,4488
2016-05-25T08:13:12.149Z,3972
2016-05-25T08:14:12.135Z,3784
2016-05-25T08:15:12.123Z,4044
2016-05-25T08:16:12.110Z,4392
2016-05-25T08:17:16.300Z,4928
2016-05-25T08:33:28.237Z,13368
2016-05-25T08:34:27.817Z,13804
2016-05-25T08:35:28.273Z,14020
2016-05-25T08:36:28.260Z,14400
2016-05-25T08:37:28.279Z,15420
2016-05-25T08:38:30.125Z,17088
2016-05-25T08:39:28.222Z,18368
2016-05-25T08:40:28.052Z,20864
2016-05-25T08:41:28.211Z,14372
2016-05-25T08:42:28.042Z,12548
2016-05-25T08:43:29.622Z,14348
2016-05-25T08:44:28.219Z,13472
2016-05-25T08:45:28.160Z,11484
2016-05-25T08:46:28.162Z,11140
2016-05-25T08:47:28.040Z,11052
2016-05-25T08:48:30.230Z,10936
2016-05-25T08:49:27.951Z,10564
2016-05-25T08:50:27.923Z,9524
2016-05-25T08:51:28.098Z,7636
2016-05-25T08:52:28.069Z,5852
2016-05-25T08:53:28.056Z,5152
2016-05-25T08:54:27.887Z,4964
2016-05-25T08:55:28.030Z,4956
2016-05-25T08:56:28.017Z,5040
2016-05-25T08:57:28.004Z,5084
2016-05-25T08:58:27.992Z,4972
2016-05-25T08:59:27.995Z,5224
2016-05-25T09:00:27.809Z,5740
2016-05-25T09:01:28.015Z,6424
2016-05-25T09:02:30.049Z,6836
2016-05-25T09:03:27.770Z,7052
2016-05-25T09:04:27.913Z,7096
2016-05-25T09:05:27.917Z,6808
2016-05-25T09:06:27.888Z,6376
2016-05-25T09:07:27.891Z,5996
2016-05-25T09:08:29.753Z,5836
2016-05-25T09:09:27.536Z,5960
2016-05-25T09:10:27.695Z,6024
2016-05-25T09:11:27.823Z,5688
2016-05-25T09:12:27.670Z,5184
2016-05-25T09:13:28.672Z,4728
2016-05-25T09:14:27.785Z,4340
2016-05-25T09:15:27.803Z,4040
2016-05-25T09:16:27.978Z,3880
2016-05-25T09:17:29.792Z,3852
2016-05-25T09:18:27.592Z,3976
2016-05-25T09:19:27.923Z,4164
2016-05-25T09:20:27.722Z,4412
2016-05-25T09:21:27.710Z,4660
2016-05-25T09:22:29.291Z,4888
2016-05-25T09:23:27.684Z,5076
2016-05-25T09:24:27.515Z,5216
2016-05-25T09:25:27.345Z,5360
2016-05-25T09:26:27.645Z,5400
2016-05-25T09:27:29.709Z,5316
2016-05-25T09:28:27.462Z,5316
2016-05-25T09:29:27.606Z,5536
2016-05-25T09:30:27.593Z,5852
2016-05-25T09:31:27.284Z,6140
2016-05-25T09:32:29.551Z,6164
2016-05-25T09:33:27.539Z,5984
2016-05-25T09:34:27.542Z,5740
2016-05-25T09:35:27.512Z,5548
2016-05-25T09:36:27.500Z,5336
2016-05-25T09:37:27.502Z,5324
2016-05-25T09:38:27.490Z,5504
2016-05-25T09:39:27.477Z,5852
2016-05-25T09:40:27.463Z,6396
2016-05-25T09:41:27.467Z,7016
2016-05-25T09:42:27.282Z,7364
2016-05-25T09:43:27.425Z,7456
2016-05-25T09:44:27.255Z,7368
2016-05-25T09:45:27.243Z,7224
2016-05-25T09:46:27.667Z,7000
2016-05-25T09:47:30.983Z,6700
2016-05-25T09:48:27.360Z,6564
2016-05-25T09:49:27.363Z,6668
2016-05-25T09:50:27.319Z,6908
2016-05-25T09:51:27.321Z,7232
2016-05-25T09:52:27.168Z,7612
2016-05-25T09:53:27.296Z,8016
2016-05-25T09:54:27.298Z,8312
2016-05-25T09:55:27.285Z,8488
2016-05-25T09:56:27.256Z,8532
2016-05-25T09:57:27.244Z,8476
2016-05-25T09:58:27.231Z,8560
2016-05-25T09:59:27.233Z,8852
2016-05-25T10:00:27.204Z,9036
2016-05-25T10:01:27.207Z,9120
2016-05-25T10:02:30.382Z,9048
2016-05-25T10:03:27.166Z,9360
2016-05-25T10:04:27.153Z,9684
2016-05-25T10:05:27.140Z,9976
2016-05-25T10:06:27.127Z,10108
2016-05-25T10:07:28.489Z,10348
2016-05-25T10:08:27.101Z,10668
2016-05-25T10:09:26.933Z,11004
2016-05-25T10:10:26.935Z,11200
2016-05-25T10:11:27.063Z,11404
2016-05-25T10:12:27.050Z,11524
2016-05-25T10:13:26.896Z,11360
2016-05-25T10:14:27.039Z,11116
2016-05-25T10:15:27.027Z,10992
2016-05-25T10:16:26.858Z,10944
2016-05-25T10:17:27.173Z,11128
2016-05-25T10:18:26.988Z,11504
2016-05-25T10:19:26.974Z,12068
2016-05-25T10:20:26.962Z,12884
2016-05-25T10:21:26.965Z,13780
2016-05-25T10:22:26.780Z,14400
2016-05-25T10:23:26.766Z,14512
2016-05-25T10:24:26.770Z,14576
2016-05-25T10:25:26.741Z,14776
2016-05-25T10:26:26.899Z,15168
2016-05-25T10:27:26.888Z,16320
2016-05-25T10:28:26.874Z,18016
2016-05-25T10:29:26.861Z,20320
2016-05-25T10:30:26.692Z,23392
2016-05-25T10:31:26.695Z,39584
2016-05-25T10:32:26.698Z,29248
2016-05-25T10:33:26.510Z,39360
2016-05-25T10:34:26.796Z,24320
2016-05-25T10:35:26.815Z,22848
2016-05-25T10:36:26.786Z,21952
2016-05-25T10:37:26.614Z,20896
2016-05-25T10:38:26.761Z,22368
2016-05-25T10:39:26.604Z,25728
2016-05-25T10:40:26.731Z,30400
2016-05-25T10:41:26.750Z,29824
2016-05-25T10:42:26.581Z,28448
2016-05-25T10:43:26.709Z,37440
2016-05-25T10:44:26.711Z,35360
2016-05-25T10:45:26.697Z,29408
2016-05-25T10:46:26.529Z,31808
2016-05-25T10:47:26.703Z,26944
2016-05-25T10:48:26.675Z,26240
2016-05-25T10:49:26.663Z,29824
2016-05-25T10:50:26.665Z,27616
2016-05-25T10:51:26.652Z,24320
2016-05-25T10:52:26.655Z,17888
2016-05-25T10:53:26.642Z,15796
2016-05-25T10:54:26.629Z,14492
2016-05-25T10:55:26.475Z,14032
2016-05-25T10:56:26.603Z,13892
2016-05-25T10:57:29.140Z,14660
2016-05-25T10:58:26.452Z,14488
2016-05-25T10:59:26.595Z,15288
2016-05-25T11:00:26.582Z,15256
2016-05-25T11:01:26.788Z,13932
2016-05-25T11:02:26.415Z,11824
2016-05-25T11:03:26.404Z,10544
2016-05-25T11:04:26.562Z,9520
2016-05-25T11:05:26.549Z,8624
2016-05-25T11:06:26.537Z,8256
2016-05-25T11:07:28.089Z,7972
2016-05-25T11:08:26.229Z,7728
2016-05-25T11:09:26.512Z,7388
2016-05-25T11:10:26.500Z,7032
2016-05-25T11:11:26.503Z,6936
2016-05-25T11:12:26.334Z,6880
2016-05-25T11:13:26.492Z,6712
2016-05-25T11:14:26.494Z,6876
2016-05-25T11:15:26.466Z,7516
2016-05-25T11:16:26.469Z,7380
2016-05-25T11:17:26.300Z,6904
2016-05-25T11:18:26.444Z,7100
2016-05-25T11:19:26.447Z,7680
2016-05-25T11:20:26.449Z,8452
2016-05-25T11:21:26.404Z,8832
2016-05-25T11:22:26.423Z,8780
2016-05-25T11:23:26.394Z,8664
2016-05-25T11:24:26.272Z,8680
2016-05-25T11:25:26.071Z,8804
2016-05-25T11:26:26.356Z,9004
2016-05-25T11:27:27.608Z,9228
2016-05-25T11:28:26.345Z,9484
2016-05-25T11:29:26.191Z,9880
2016-05-25T11:30:26.179Z,10040
2016-05-25T11:31:26.165Z,9636
2016-05-25T11:32:26.324Z,9988
2016-05-25T11:33:26.156Z,10244
2016-05-25T11:34:26.299Z,10896
2016-05-25T11:35:26.146Z,11468
2016-05-25T11:36:26.273Z,10056
2016-05-25T11:37:26.119Z,9884
2016-05-25T11:38:25.951Z,9360
2016-05-25T11:39:26.250Z,8640
2016-05-25T11:40:26.237Z,8464
2016-05-25T11:41:26.224Z,9988
2016-05-25T11:42:26.242Z,10136
2016-05-25T11:43:26.214Z,10624
2016-05-25T11:44:26.044Z,11684
2016-05-25T11:45:26.031Z,13432
2016-05-25T11:46:26.191Z,14340
2016-05-25T11:47:30.134Z,15244
2016-05-25T11:48:26.165Z,15372
2016-05-25T11:49:26.152Z,15184
2016-05-25T11:50:26.139Z,15068
2016-05-25T11:51:25.813Z,14768
2016-05-25T11:52:26.003Z,14632
2016-05-25T11:53:26.163Z,13848
2016-05-25T11:54:26.102Z,12964
2016-05-25T11:55:26.105Z,12440
2016-05-25T11:56:26.124Z,11776
2016-05-25T11:57:26.063Z,12016
2016-05-25T11:58:25.910Z,13020
2016-05-25T11:59:26.085Z,12952
2016-05-25T12:00:25.932Z,13624
2016-05-25T12:01:26.043Z,14156
2016-05-25T12:02:26.077Z,14704
2016-05-25T12:03:28.315Z,13368
2016-05-25T12:04:26.021Z,13204
2016-05-25T12:05:25.867Z,14148
2016-05-25T12:06:25.978Z,13484
2016-05-25T12:07:25.825Z,13196
2016-05-25T12:08:25.828Z,12584
2016-05-25T12:09:25.815Z,12000
2016-05-25T12:10:25.990Z,11304
2016-05-25T12:11:25.679Z,11408
2016-05-25T12:12:25.791Z,10876
2016-05-25T12:13:25.935Z,10328
2016-05-25T12:14:25.906Z,9904
2016-05-25T12:15:25.909Z,9496
2016-05-25T12:16:25.911Z,9552
2016-05-25T12:17:26.414Z,9748
2016-05-25T12:18:26.152Z,9972
2016-05-25T12:19:25.858Z,10732
2016-05-25T12:20:25.861Z,11964
2016-05-25T12:21:25.847Z,13384
2016-05-25T12:22:25.850Z,14708
2016-05-25T12:23:25.697Z,13704
2016-05-25T12:24:25.839Z,14164
2016-05-25T12:25:25.827Z,15000
2016-05-25T12:26:25.813Z,15776
2016-05-25T12:27:25.629Z,17312
2016-05-25T12:28:25.772Z,16544
2016-05-25T12:29:25.760Z,18016
2016-05-25T12:30:25.793Z,18816
2016-05-25T12:31:25.780Z,18720
2016-05-25T12:32:27.392Z,16928
2016-05-25T12:33:25.738Z,16224
2016-05-25T12:34:25.601Z,16000
2016-05-25T12:35:25.729Z,16160
2016-05-25T12:36:25.715Z,16256
2016-05-25T12:37:25.562Z,16384
2016-05-25T12:38:25.690Z,16800
2016-05-25T12:39:25.709Z,17440
2016-05-25T12:40:25.664Z,18240
2016-05-25T12:41:25.651Z,19136
2016-05-25T12:42:25.356Z,20192
2016-05-25T12:43:25.640Z,22016
2016-05-25T12:44:25.487Z,25376
2016-05-25T12:45:25.631Z,29920
2016-05-25T12:46:25.461Z,32128
2016-05-25T12:47:26.745Z,34624
2016-05-25T12:48:25.467Z,31488
2016-05-25T12:49:25.626Z,38112
2016-05-25T12:50:25.442Z,80736
2016-05-25T12:51:25.615Z,33376
2016-05-25T12:52:27.133Z,50528
2016-05-25T12:53:25.558Z,54688
2016-05-25T12:54:25.592Z,65632
2016-05-25T12:55:25.392Z,37664
2016-05-25T12:56:25.550Z,37152
2016-05-25T12:57:25.568Z,63040
2016-05-25T12:58:25.541Z,32064
2016-05-25T12:59:25.543Z,52480
2016-05-25T13:00:25.530Z,80320
2016-05-25T13:01:25.563Z,82272
2016-05-25T13:02:25.442Z,71200
2016-05-25T13:03:25.523Z,49600
2016-05-25T13:04:25.509Z,68640
2016-05-25T13:05:25.513Z,60928
2016-05-25T13:06:25.562Z,50400
2016-05-25T13:07:25.346Z,34112
2016-05-25T13:08:25.332Z,25216
2016-05-25T13:09:25.507Z,22432
2016-05-25T13:10:25.494Z,21248
2016-05-25T13:11:25.498Z,22976
2016-05-25T13:12:25.156Z,22528
2016-05-25T13:13:25.503Z,23264
2016-05-25T13:14:25.474Z,21984
2016-05-25T13:15:25.492Z,19712
2016-05-25T13:16:25.151Z,18560
2016-05-25T13:17:26.123Z,18976
2016-05-25T13:18:25.328Z,19392
2016-05-25T13:19:25.300Z,19424
2016-05-25T13:20:25.459Z,27552
2016-05-25T13:21:25.290Z,25088
2016-05-25T13:22:25.292Z,21920
2016-05-25T13:23:25.436Z,18240
2016-05-25T13:24:25.454Z,14044
2016-05-25T13:25:25.463Z,13252
2016-05-25T13:26:25.489Z,13084
2016-05-25T13:27:25.890Z,14040
2016-05-25T13:28:25.510Z,17568
2016-05-25T13:29:25.520Z,21760
2016-05-25T13:30:25.574Z,18816
2016-05-25T13:31:25.397Z,16832
2016-05-25T13:32:26.596Z,15868
2016-05-25T13:33:25.544Z,18144
2016-05-25T13:34:25.588Z,16896
2016-05-25T13:35:25.440Z,15532
2016-05-25T13:36:25.571Z,14852
2016-05-25T13:37:25.451Z,14680
2016-05-25T13:38:25.286Z,15440
2016-05-25T13:39:25.385Z,19712
2016-05-25T13:40:25.407Z,29152
2016-05-25T13:41:25.598Z,28192
2016-05-25T13:42:25.539Z,33024
2016-05-25T13:43:25.247Z,29344
2016-05-25T13:44:25.531Z,22944
2016-05-25T13:45:25.551Z,11048
2016-05-25T13:46:25.365Z,8488
2016-05-25T13:47:25.510Z,8356
2016-05-25T13:48:25.340Z,7360